sensor_id;sensor_type;location;lat;lon;timestamp;P1;durP1;ratioP1;P2;durP2;ratioP2
18711;SDS011;9485;49.386;8.674;2022-10-03T00:04:42;5.30;;;3.17;;
18711;SDS011;9485;49.386;8.674;2022-10-03T00:10:21;5.60;;;3.67;;
18711;SDS011;9485;49.386;8.674;2022-10-03T00:16:00;5.77;;;3.57;;
18711;SDS011;9485;49.386;8.674;2022-10-03T00:21:36;5.63;;;3.60;;
18711;SDS011;9485;49.386;8.674;2022-10-03T00:27:15;7.27;;;4.07;;
18711;SDS011;9485;49.386;8.674;2022-10-03T00:32:59;7.67;;;3.57;;
18711;SDS011;9485;49.386;8.674;2022-10-03T00:45:07;4.83;;;3.40;;
18711;SDS011;9485;49.386;8.674;2022-10-03T00:51:08;6.20;;;3.83;;
18711;SDS011;9485;49.386;8.674;2022-10-03T01:02:45;6.37;;;3.83;;
18711;SDS011;9485;49.386;8.674;2022-10-03T01:08:28;4.73;;;3.20;;
18711;SDS011;9485;49.386;8.674;2022-10-03T01:14:25;5.43;;;3.63;;
18711;SDS011;9485;49.386;8.674;2022-10-03T01:20:11;4.00;;;2.83;;
18711;SDS011;9485;49.386;8.674;2022-10-03T01:26:02;5.20;;;3.73;;
18711;SDS011;9485;49.386;8.674;2022-10-03T01:31:42;7.23;;;3.77;;
18711;SDS011;9485;49.386;8.674;2022-10-03T01:37:09;8.07;;;3.87;;
18711;SDS011;9485;49.386;8.674;2022-10-03T01:42:43;8.43;;;4.20;;
18711;SDS011;9485;49.386;8.674;2022-10-03T01:48:24;7.30;;;5.07;;
18711;SDS011;9485;49.386;8.674;2022-10-03T01:54:06;7.77;;;4.33;;
18711;SDS011;9485;49.386;8.674;2022-10-03T01:59:45;7.13;;;4.17;;
18711;SDS011;9485;49.386;8.674;2022-10-03T02:05:18;5.40;;;3.57;;
18711;SDS011;9485;49.386;8.674;2022-10-03T02:10:48;5.67;;;4.03;;
18711;SDS011;9485;49.386;8.674;2022-10-03T02:16:19;7.03;;;4.67;;
18711;SDS011;9485;49.386;8.674;2022-10-03T02:21:54;6.37;;;3.73;;
18711;SDS011;9485;49.386;8.674;2022-10-03T02:27:31;8.17;;;4.70;;
18711;SDS011;9485;49.386;8.674;2022-10-03T02:33:33;9.33;;;4.63;;
18711;SDS011;9485;49.386;8.674;2022-10-03T02:45:49;7.57;;;4.47;;
18711;SDS011;9485;49.386;8.674;2022-10-03T02:58:22;9.13;;;5.23;;
18711;SDS011;9485;49.386;8.674;2022-10-03T03:04:36;10.37;;;5.47;;
18711;SDS011;9485;49.386;8.674;2022-10-03T03:16:51;7.23;;;5.27;;
18711;SDS011;9485;49.386;8.674;2022-10-03T03:22:34;7.80;;;5.17;;
18711;SDS011;9485;49.386;8.674;2022-10-03T03:28:18;9.97;;;5.50;;
18711;SDS011;9485;49.386;8.674;2022-10-03T03:33:56;7.23;;;4.67;;
18711;SDS011;9485;49.386;8.674;2022-10-03T03:39:33;7.60;;;5.17;;
18711;SDS011;9485;49.386;8.674;2022-10-03T03:45:31;7.90;;;4.47;;
18711;SDS011;9485;49.386;8.674;2022-10-03T03:51:22;6.40;;;4.53;;
18711;SDS011;9485;49.386;8.674;2022-10-03T03:57:01;7.87;;;5.00;;
18711;SDS011;9485;49.386;8.674;2022-10-03T04:02:57;6.77;;;4.60;;
18711;SDS011;9485;49.386;8.674;2022-10-03T04:09:02;7.23;;;4.80;;
18711;SDS011;9485;49.386;8.674;2022-10-03T04:14:54;6.60;;;4.33;;
18711;SDS011;9485;49.386;8.674;2022-10-03T04:20:55;6.07;;;4.40;;
18711;SDS011;9485;49.386;8.674;2022-10-03T04:26:43;6.13;;;3.83;;
18711;SDS011;9485;49.386;8.674;2022-10-03T04:32:24;6.20;;;3.87;;
18711;SDS011;9485;49.386;8.674;2022-10-03T04:38:17;8.27;;;4.43;;
18711;SDS011;9485;49.386;8.674;2022-10-03T04:44:01;6.70;;;4.20;;
18711;SDS011;9485;49.386;8.674;2022-10-03T04:49:32;7.53;;;5.17;;
18711;SDS011;9485;49.386;8.674;2022-10-03T04:55:02;5.53;;;4.37;;
18711;SDS011;9485;49.386;8.674;2022-10-03T05:00:46;6.63;;;4.50;;
18711;SDS011;9485;49.386;8.674;2022-10-03T05:06:26;5.73;;;4.43;;
18711;SDS011;9485;49.386;8.674;2022-10-03T05:12:02;6.10;;;4.53;;
18711;SDS011;9485;49.386;8.674;2022-10-03T05:17:39;7.37;;;5.37;;
18711;SDS011;9485;49.386;8.674;2022-10-03T05:23:11;9.37;;;5.37;;
18711;SDS011;9485;49.386;8.674;2022-10-03T05:28:48;7.00;;;5.30;;
18711;SDS011;9485;49.386;8.674;2022-10-03T05:34:26;6.33;;;4.63;;
18711;SDS011;9485;49.386;8.674;2022-10-03T05:40:00;5.83;;;4.40;;
18711;SDS011;9485;49.386;8.674;2022-10-03T05:45:35;5.87;;;4.77;;
18711;SDS011;9485;49.386;8.674;2022-10-03T05:57:36;6.80;;;4.97;;
18711;SDS011;9485;49.386;8.674;2022-10-03T06:03:50;7.23;;;4.97;;
18711;SDS011;9485;49.386;8.674;2022-10-03T06:15:52;7.53;;;5.10;;
18711;SDS011;9485;49.386;8.674;2022-10-03T06:21:22;5.53;;;4.63;;
18711;SDS011;9485;49.386;8.674;2022-10-03T06:27:30;7.17;;;5.60;;
18711;SDS011;9485;49.386;8.674;2022-10-03T06:33:40;7.33;;;4.60;;
18711;SDS011;9485;49.386;8.674;2022-10-03T06:40:02;6.53;;;4.93;;
18711;SDS011;9485;49.386;8.674;2022-10-03T06:52:28;6.87;;;4.90;;
18711;SDS011;9485;49.386;8.674;2022-10-03T07:04:31;6.07;;;4.97;;
18711;SDS011;9485;49.386;8.674;2022-10-03T07:10:23;7.47;;;5.67;;
18711;SDS011;9485;49.386;8.674;2022-10-03T07:16:17;11.70;;;6.47;;
18711;SDS011;9485;49.386;8.674;2022-10-03T07:28:19;9.77;;;6.00;;
18711;SDS011;9485;49.386;8.674;2022-10-03T07:40:41;10.83;;;7.03;;
18711;SDS011;9485;49.386;8.674;2022-10-03T07:46:45;12.60;;;7.43;;
18711;SDS011;9485;49.386;8.674;2022-10-03T07:52:56;10.50;;;7.87;;
18711;SDS011;9485;49.386;8.674;2022-10-03T07:58:38;10.20;;;8.07;;
18711;SDS011;9485;49.386;8.674;2022-10-03T08:10:34;12.17;;;8.43;;
18711;SDS011;9485;49.386;8.674;2022-10-03T08:16:31;11.83;;;8.40;;
18711;SDS011;9485;49.386;8.674;2022-10-03T08:22:30;13.67;;;8.67;;
18711;SDS011;9485;49.386;8.674;2022-10-03T08:28:14;12.27;;;8.20;;
18711;SDS011;9485;49.386;8.674;2022-10-03T08:34:07;15.33;;;7.93;;
18711;SDS011;9485;49.386;8.674;2022-10-03T08:40:31;12.85;;;8.20;;
18711;SDS011;9485;49.386;8.674;2022-10-03T08:46:38;10.63;;;6.88;;
18711;SDS011;9485;49.386;8.674;2022-10-03T08:52:33;7.93;;;6.03;;
18711;SDS011;9485;49.386;8.674;2022-10-03T08:58:47;10.30;;;5.60;;
18711;SDS011;9485;49.386;8.674;2022-10-03T09:04:43;4.80;;;4.30;;
18711;SDS011;9485;49.386;8.674;2022-10-03T09:10:50;6.97;;;4.75;;
18711;SDS011;9485;49.386;8.674;2022-10-03T09:16:59;6.93;;;4.53;;
18711;SDS011;9485;49.386;8.674;2022-10-03T09:22:43;9.98;;;5.45;;
18711;SDS011;9485;49.386;8.674;2022-10-03T09:47:28;5.63;;;4.30;;
18711;SDS011;9485;49.386;8.674;2022-10-03T09:53:37;4.80;;;4.07;;
18711;SDS011;9485;49.386;8.674;2022-10-03T09:59:39;9.50;;;4.00;;
18711;SDS011;9485;49.386;8.674;2022-10-03T10:05:50;5.70;;;3.53;;
18711;SDS011;9485;49.386;8.674;2022-10-03T10:11:49;6.22;;;4.28;;
18711;SDS011;9485;49.386;8.674;2022-10-03T10:24:02;5.45;;;3.30;;
18711;SDS011;9485;49.386;8.674;2022-10-03T10:30:11;4.25;;;3.15;;
18711;SDS011;9485;49.386;8.674;2022-10-03T10:35:45;3.88;;;3.40;;
18711;SDS011;9485;49.386;8.674;2022-10-03T10:41:55;3.65;;;2.90;;
18711;SDS011;9485;49.386;8.674;2022-10-03T10:54:38;4.00;;;2.67;;
18711;SDS011;9485;49.386;8.674;2022-10-03T11:00:45;2.47;;;2.13;;
18711;SDS011;9485;49.386;8.674;2022-10-03T11:13:36;4.40;;;2.13;;
18711;SDS011;9485;49.386;8.674;2022-10-03T11:26:17;6.35;;;2.55;;
18711;SDS011;9485;49.386;8.674;2022-10-03T11:38:52;3.42;;;2.10;;
18711;SDS011;9485;49.386;8.674;2022-10-03T11:44:27;3.03;;;2.13;;
18711;SDS011;9485;49.386;8.674;2022-10-03T11:50:00;4.13;;;2.47;;
18711;SDS011;9485;49.386;8.674;2022-10-03T11:55:48;6.85;;;2.55;;
18711;SDS011;9485;49.386;8.674;2022-10-03T12:01:24;2.58;;;2.08;;
18711;SDS011;9485;49.386;8.674;2022-10-03T12:07:00;3.78;;;2.20;;
18711;SDS011;9485;49.386;8.674;2022-10-03T12:12:47;4.47;;;2.00;;
18711;SDS011;9485;49.386;8.674;2022-10-03T12:18:16;4.22;;;2.40;;
18711;SDS011;9485;49.386;8.674;2022-10-03T12:23:56;2.75;;;2.10;;
18711;SDS011;9485;49.386;8.674;2022-10-03T12:29:32;3.25;;;2.10;;
18711;SDS011;9485;49.386;8.674;2022-10-03T12:35:04;2.78;;;1.98;;
18711;SDS011;9485;49.386;8.674;2022-10-03T12:40:50;3.55;;;1.70;;
18711;SDS011;9485;49.386;8.674;2022-10-03T12:46:33;2.58;;;1.90;;
18711;SDS011;9485;49.386;8.674;2022-10-03T12:52:05;2.55;;;1.60;;
18711;SDS011;9485;49.386;8.674;2022-10-03T12:57:45;2.28;;;1.50;;
18711;SDS011;9485;49.386;8.674;2022-10-03T13:03:17;2.78;;;1.73;;
18711;SDS011;9485;49.386;8.674;2022-10-03T13:08:54;1.95;;;1.63;;
18711;SDS011;9485;49.386;8.674;2022-10-03T13:14:40;2.28;;;1.80;;
18711;SDS011;9485;49.386;8.674;2022-10-03T13:20:36;3.35;;;1.55;;
18711;SDS011;9485;49.386;8.674;2022-10-03T13:26:03;3.35;;;1.75;;
18711;SDS011;9485;49.386;8.674;2022-10-03T13:31:33;2.10;;;1.60;;
18711;SDS011;9485;49.386;8.674;2022-10-03T13:36:59;3.40;;;1.60;;
18711;SDS011;9485;49.386;8.674;2022-10-03T13:42:34;2.30;;;1.42;;
18711;SDS011;9485;49.386;8.674;2022-10-03T13:48:04;2.88;;;1.48;;
18711;SDS011;9485;49.386;8.674;2022-10-03T13:53:40;3.95;;;1.83;;
18711;SDS011;9485;49.386;8.674;2022-10-03T13:59:36;2.45;;;1.58;;
18711;SDS011;9485;49.386;8.674;2022-10-03T14:05:25;1.65;;;1.55;;
18711;SDS011;9485;49.386;8.674;2022-10-03T14:17:05;4.05;;;2.35;;
18711;SDS011;9485;49.386;8.674;2022-10-03T14:22:35;2.60;;;1.63;;
18711;SDS011;9485;49.386;8.674;2022-10-03T14:28:12;2.08;;;1.58;;
18711;SDS011;9485;49.386;8.674;2022-10-03T14:33:45;3.38;;;2.15;;
18711;SDS011;9485;49.386;8.674;2022-10-03T14:39:30;2.38;;;1.95;;
18711;SDS011;9485;49.386;8.674;2022-10-03T14:45:00;4.47;;;1.75;;
18711;SDS011;9485;49.386;8.674;2022-10-03T14:50:28;2.47;;;1.80;;
18711;SDS011;9485;49.386;8.674;2022-10-03T14:55:55;2.28;;;1.40;;
18711;SDS011;9485;49.386;8.674;2022-10-03T15:01:21;2.25;;;1.75;;
18711;SDS011;9485;49.386;8.674;2022-10-03T15:06:51;2.83;;;1.60;;
18711;SDS011;9485;49.386;8.674;2022-10-03T15:12:14;4.20;;;1.83;;
18711;SDS011;9485;49.386;8.674;2022-10-03T15:17:43;2.95;;;1.60;;
18711;SDS011;9485;49.386;8.674;2022-10-03T15:23:16;3.28;;;1.98;;
18711;SDS011;9485;49.386;8.674;2022-10-03T15:28:40;3.00;;;2.00;;
18711;SDS011;9485;49.386;8.674;2022-10-03T15:34:06;4.30;;;2.63;;
18711;SDS011;9485;49.386;8.674;2022-10-03T15:39:39;6.38;;;2.13;;
18711;SDS011;9485;49.386;8.674;2022-10-03T15:45:04;4.15;;;1.50;;
18711;SDS011;9485;49.386;8.674;2022-10-03T15:50:30;1.77;;;1.50;;
18711;SDS011;9485;49.386;8.674;2022-10-03T15:56:05;2.60;;;1.50;;
18711;SDS011;9485;49.386;8.674;2022-10-03T16:01:36;2.10;;;1.77;;
18711;SDS011;9485;49.386;8.674;2022-10-03T16:07:01;1.60;;;1.50;;
18711;SDS011;9485;49.386;8.674;2022-10-03T16:12:39;2.90;;;1.70;;
18711;SDS011;9485;49.386;8.674;2022-10-03T16:24:16;2.13;;;1.80;;
18711;SDS011;9485;49.386;8.674;2022-10-03T16:29:53;2.67;;;2.30;;
18711;SDS011;9485;49.386;8.674;2022-10-03T16:35:35;4.43;;;1.80;;
18711;SDS011;9485;49.386;8.674;2022-10-03T16:41:03;2.67;;;1.70;;
18711;SDS011;9485;49.386;8.674;2022-10-03T16:46:36;2.97;;;1.93;;
18711;SDS011;9485;49.386;8.674;2022-10-03T16:52:03;4.10;;;2.00;;
18711;SDS011;9485;49.386;8.674;2022-10-03T16:57:39;2.10;;;1.70;;
18711;SDS011;9485;49.386;8.674;2022-10-03T17:03:21;2.50;;;2.00;;
18711;SDS011;9485;49.386;8.674;2022-10-03T17:08:46;4.90;;;2.93;;
18711;SDS011;9485;49.386;8.674;2022-10-03T17:14:10;2.67;;;2.00;;
18711;SDS011;9485;49.386;8.674;2022-10-03T17:19:43;2.73;;;2.03;;
18711;SDS011;9485;49.386;8.674;2022-10-03T17:30:58;2.90;;;2.23;;
18711;SDS011;9485;49.386;8.674;2022-10-03T17:36:33;3.50;;;1.80;;
18711;SDS011;9485;49.386;8.674;2022-10-03T17:42:39;3.87;;;2.33;;
18711;SDS011;9485;49.386;8.674;2022-10-03T17:48:07;6.73;;;2.87;;
18711;SDS011;9485;49.386;8.674;2022-10-03T17:53:34;3.17;;;2.37;;
18711;SDS011;9485;49.386;8.674;2022-10-03T17:58:58;5.87;;;3.17;;
18711;SDS011;9485;49.386;8.674;2022-10-03T18:04:27;4.77;;;2.83;;
18711;SDS011;9485;49.386;8.674;2022-10-03T18:09:54;3.27;;;2.63;;
18711;SDS011;9485;49.386;8.674;2022-10-03T18:21:20;5.83;;;3.27;;
18711;SDS011;9485;49.386;8.674;2022-10-03T18:27:01;3.50;;;2.50;;
18711;SDS011;9485;49.386;8.674;2022-10-03T18:32:40;5.80;;;2.80;;
18711;SDS011;9485;49.386;8.674;2022-10-03T18:38:10;6.37;;;3.23;;
18711;SDS011;9485;49.386;8.674;2022-10-03T18:43:38;3.67;;;2.57;;
18711;SDS011;9485;49.386;8.674;2022-10-03T18:49:04;2.73;;;2.07;;
18711;SDS011;9485;49.386;8.674;2022-10-03T18:54:39;3.33;;;2.43;;
18711;SDS011;9485;49.386;8.674;2022-10-03T19:00:17;3.50;;;2.50;;
18711;SDS011;9485;49.386;8.674;2022-10-03T19:05:44;5.67;;;2.50;;
18711;SDS011;9485;49.386;8.674;2022-10-03T19:11:13;5.37;;;3.13;;
18711;SDS011;9485;49.386;8.674;2022-10-03T19:16:47;8.97;;;4.40;;
18711;SDS011;9485;49.386;8.674;2022-10-03T19:22:29;7.27;;;3.83;;
18711;SDS011;9485;49.386;8.674;2022-10-03T19:27:56;5.27;;;3.13;;
18711;SDS011;9485;49.386;8.674;2022-10-03T19:33:25;4.67;;;2.97;;
18711;SDS011;9485;49.386;8.674;2022-10-03T19:38:51;7.60;;;3.80;;
18711;SDS011;9485;49.386;8.674;2022-10-03T19:44:13;6.57;;;3.57;;
18711;SDS011;9485;49.386;8.674;2022-10-03T19:49:42;5.93;;;3.20;;
18711;SDS011;9485;49.386;8.674;2022-10-03T19:55:13;5.90;;;3.10;;
18711;SDS011;9485;49.386;8.674;2022-10-03T20:00:38;4.87;;;3.27;;
18711;SDS011;9485;49.386;8.674;2022-10-03T20:06:13;4.50;;;2.90;;
18711;SDS011;9485;49.386;8.674;2022-10-03T20:11:42;4.33;;;3.20;;
18711;SDS011;9485;49.386;8.674;2022-10-03T20:17:08;6.20;;;3.33;;
18711;SDS011;9485;49.386;8.674;2022-10-03T20:22:35;4.67;;;3.20;;
18711;SDS011;9485;49.386;8.674;2022-10-03T20:27:56;6.87;;;3.27;;
18711;SDS011;9485;49.386;8.674;2022-10-03T20:33:23;6.93;;;3.20;;
18711;SDS011;9485;49.386;8.674;2022-10-03T20:38:59;6.43;;;3.70;;
18711;SDS011;9485;49.386;8.674;2022-10-03T20:44:48;5.70;;;3.50;;
18711;SDS011;9485;49.386;8.674;2022-10-03T20:50:22;4.80;;;3.60;;
18711;SDS011;9485;49.386;8.674;2022-10-03T20:55:51;4.97;;;3.00;;
18711;SDS011;9485;49.386;8.674;2022-10-03T21:01:20;5.60;;;3.13;;
18711;SDS011;9485;49.386;8.674;2022-10-03T21:06:46;5.90;;;3.47;;
18711;SDS011;9485;49.386;8.674;2022-10-03T21:12:20;6.17;;;3.80;;
18711;SDS011;9485;49.386;8.674;2022-10-03T21:17:46;5.30;;;3.67;;
18711;SDS011;9485;49.386;8.674;2022-10-03T21:23:12;4.77;;;3.40;;
18711;SDS011;9485;49.386;8.674;2022-10-03T21:28:40;5.93;;;3.93;;
18711;SDS011;9485;49.386;8.674;2022-10-03T21:34:06;3.97;;;3.17;;
18711;SDS011;9485;49.386;8.674;2022-10-03T21:39:46;6.70;;;3.67;;
18711;SDS011;9485;49.386;8.674;2022-10-03T21:45:27;7.03;;;4.10;;
18711;SDS011;9485;49.386;8.674;2022-10-03T21:50:59;6.37;;;3.77;;
18711;SDS011;9485;49.386;8.674;2022-10-03T21:56:41;5.20;;;3.37;;
18711;SDS011;9485;49.386;8.674;2022-10-03T22:02:18;4.47;;;3.50;;
18711;SDS011;9485;49.386;8.674;2022-10-03T22:07:48;5.20;;;3.63;;
18711;SDS011;9485;49.386;8.674;2022-10-03T22:13:11;5.83;;;3.93;;
18711;SDS011;9485;49.386;8.674;2022-10-03T22:18:58;5.63;;;3.77;;
18711;SDS011;9485;49.386;8.674;2022-10-03T22:24:36;7.17;;;4.40;;
18711;SDS011;9485;49.386;8.674;2022-10-03T22:30:14;5.47;;;3.83;;
18711;SDS011;9485;49.386;8.674;2022-10-03T22:35:44;4.23;;;3.60;;
18711;SDS011;9485;49.386;8.674;2022-10-03T22:41:10;6.60;;;3.53;;
18711;SDS011;9485;49.386;8.674;2022-10-03T22:46:38;4.73;;;3.07;;
18711;SDS011;9485;49.386;8.674;2022-10-03T22:52:05;5.33;;;3.53;;
18711;SDS011;9485;49.386;8.674;2022-10-03T22:57:33;4.90;;;3.37;;
18711;SDS011;9485;49.386;8.674;2022-10-03T23:02:57;4.97;;;3.33;;
18711;SDS011;9485;49.386;8.674;2022-10-03T23:08:28;4.20;;;3.03;;
18711;SDS011;9485;49.386;8.674;2022-10-03T23:14:09;6.97;;;3.70;;
18711;SDS011;9485;49.386;8.674;2022-10-03T23:19:41;4.70;;;3.53;;
18711;SDS011;9485;49.386;8.674;2022-10-03T23:25:19;4.80;;;3.43;;
18711;SDS011;9485;49.386;8.674;2022-10-03T23:30:49;4.83;;;3.40;;
18711;SDS011;9485;49.386;8.674;2022-10-03T23:36:12;5.80;;;4.07;;
18711;SDS011;9485;49.386;8.674;2022-10-03T23:41:42;4.97;;;3.57;;
18711;SDS011;9485;49.386;8.674;2022-10-03T23:47:17;6.20;;;3.90;;
18711;SDS011;9485;49.386;8.674;2022-10-03T23:52:45;4.47;;;3.90;;
18711;SDS011;9485;49.386;8.674;2022-10-03T23:58:24;5.57;;;4.07;;
